createdAt,value
2018-11-13T00:01:44.140Z,3.4
2018-11-13T00:04:44.569Z,3.3
2018-11-13T00:07:44.429Z,3.3
2018-11-13T00:10:44.218Z,3.2
2018-11-13T00:13:44.441Z,3.2
2018-11-13T00:16:44.147Z,3.4
2018-11-13T00:19:44.345Z,3.7
2018-11-13T00:22:44.369Z,3.5
2018-11-13T00:25:44.162Z,3.4
2018-11-13T00:28:44.249Z,3.3
2018-11-13T00:31:44.303Z,3.3
2018-11-13T00:34:44.121Z,3.6
2018-11-13T00:37:44.274Z,3.3
2018-11-13T00:40:44.117Z,3.2
2018-11-13T00:43:44.185Z,3.3
2018-11-13T00:46:44.274Z,3.3
2018-11-13T00:49:44.403Z,3.2
2018-11-13T00:52:44.426Z,3.2
2018-11-13T00:55:44.542Z,3.6
2018-11-13T00:58:44.530Z,3.3
2018-11-13T01:01:44.158Z,3.3
2018-11-13T01:04:44.597Z,3.3
2018-11-13T01:07:46.213Z,3.3
2018-11-13T01:10:44.102Z,3.2
2018-11-13T01:13:44.193Z,3.2
2018-11-13T01:16:44.294Z,3.2
2018-11-13T01:19:44.157Z,3.3
2018-11-13T01:22:44.310Z,3.2
2018-11-13T01:25:44.286Z,3.2
2018-11-13T01:28:44.390Z,3.2
2018-11-13T01:31:44.331Z,3.2
2018-11-13T01:34:44.376Z,3.2
2018-11-13T01:37:44.370Z,3.1
2018-11-13T01:40:44.238Z,3.2
2018-11-13T01:43:44.061Z,3.1
2018-11-13T01:46:44.517Z,3
2018-11-13T01:49:44.204Z,3.1
2018-11-13T01:52:44.349Z,3.5
2018-11-13T01:55:44.256Z,3.3
2018-11-13T01:58:44.261Z,3.2
2018-11-13T02:01:44.198Z,3.1
2018-11-13T02:04:44.168Z,3.1
2018-11-13T02:07:44.307Z,3.5
2018-11-13T02:10:44.109Z,3.3
2018-11-13T02:13:44.220Z,3.1
2018-11-13T02:16:44.216Z,3.1
2018-11-13T02:19:44.452Z,3
2018-11-13T02:22:44.315Z,3.2
2018-11-13T02:25:44.152Z,3.1
2018-11-13T02:28:44.230Z,3.1
2018-11-13T02:31:44.588Z,3
2018-11-13T02:34:44.085Z,2.9
2018-11-13T02:37:44.209Z,2.9
2018-11-13T02:40:44.519Z,3.1
2018-11-13T02:43:44.417Z,3
2018-11-13T02:46:44.355Z,3.5
2018-11-13T02:49:44.307Z,3.3
2018-11-13T02:52:44.397Z,3.2
2018-11-13T02:55:44.368Z,3.1
2018-11-13T02:58:44.409Z,3.1
2018-11-13T03:01:44.278Z,3.1
2018-11-13T03:04:43.987Z,3.1
2018-11-13T03:07:44.228Z,2.9
2018-11-13T03:10:44.322Z,3.2
2018-11-13T03:13:45.781Z,3
2018-11-13T03:16:44.239Z,3.1
2018-11-13T03:19:44.455Z,3
2018-11-13T03:22:44.303Z,2.9
2018-11-13T03:25:44.247Z,3
2018-11-13T03:28:44.310Z,3
2018-11-13T03:31:44.400Z,3
2018-11-13T03:34:44.722Z,3.1
2018-11-13T03:37:44.294Z,3
2018-11-13T03:40:44.100Z,3.1
2018-11-13T03:43:44.195Z,3
2018-11-13T03:46:44.034Z,3
2018-11-13T03:49:44.257Z,2.9
2018-11-13T03:52:44.551Z,2.9
2018-11-13T03:55:44.243Z,2.8
2018-11-13T03:58:44.255Z,2.8
2018-11-13T04:01:44.465Z,2.9
2018-11-13T04:04:44.376Z,2.8
2018-11-13T04:07:44.794Z,2.8
2018-11-13T04:10:44.008Z,2.7
2018-11-13T04:13:44.233Z,2.7
2018-11-13T04:16:44.381Z,2.8
2018-11-13T04:19:44.278Z,2.7
2018-11-13T04:22:44.204Z,2.7
2018-11-13T04:25:44.310Z,2.7
2018-11-13T04:28:44.166Z,2.8
2018-11-13T04:31:44.425Z,2.7
2018-11-13T04:34:44.226Z,2.7
2018-11-13T04:37:44.046Z,2.7
2018-11-13T04:40:44.219Z,2.7
2018-11-13T04:43:44.041Z,2.7
2018-11-13T04:46:45.052Z,2.8
2018-11-13T04:49:44.143Z,2.8
2018-11-13T04:52:44.131Z,2.8
2018-11-13T04:55:44.123Z,2.8
2018-11-13T04:58:44.337Z,2.7
2018-11-13T05:01:44.068Z,2.6
2018-11-13T05:04:44.117Z,2.7
2018-11-13T05:07:44.397Z,2.6
2018-11-13T05:10:44.020Z,2.6
2018-11-13T05:13:44.148Z,2.7
2018-11-13T05:16:44.180Z,2.6
2018-11-13T05:19:44.489Z,2.6
2018-11-13T05:22:44.420Z,2.7
2018-11-13T05:25:44.547Z,2.7
2018-11-13T05:28:44.115Z,2.8
2018-11-13T05:31:44.226Z,2.7
2018-11-13T05:34:44.088Z,2.6
2018-11-13T05:37:44.503Z,2.6
2018-11-13T05:40:44.441Z,4
2018-11-13T05:43:44.173Z,5.3
2018-11-13T05:46:44.237Z,5
2018-11-13T05:49:44.432Z,4.5
2018-11-13T05:52:44.358Z,3.5
2018-11-13T05:55:44.242Z,3.2
2018-11-13T05:58:44.075Z,2.8
2018-11-13T06:01:43.991Z,2.7
2018-11-13T06:04:44.337Z,2.6
2018-11-13T06:07:44.227Z,2.7
2018-11-13T06:10:44.260Z,3
2018-11-13T06:13:44.301Z,2.6
2018-11-13T06:16:44.614Z,2.5
2018-11-13T06:19:44.426Z,2.5
2018-11-13T06:22:45.130Z,2.6
2018-11-13T06:25:44.140Z,2.8
2018-11-13T06:28:44.107Z,2.6
2018-11-13T06:31:44.271Z,2.4
2018-11-13T06:34:44.134Z,2.8
2018-11-13T06:37:44.557Z,2.6
2018-11-13T06:40:44.007Z,2.7
2018-11-13T06:43:43.980Z,2.6
2018-11-13T06:46:44.174Z,2.6
2018-11-13T06:49:44.987Z,2.5
2018-11-13T06:52:43.948Z,2.4
2018-11-13T06:55:44.291Z,2.3
2018-11-13T06:58:44.126Z,2.4
2018-11-13T07:01:43.903Z,2.3
2018-11-13T07:04:43.974Z,2.3
2018-11-13T07:07:44.048Z,2.3
2018-11-13T07:10:45.815Z,2.3
2018-11-13T07:13:44.189Z,2.3
2018-11-13T07:16:44.307Z,2.3
2018-11-13T07:19:43.981Z,2.3
2018-11-13T07:22:44.227Z,2.2
2018-11-13T07:25:44.059Z,2.1
2018-11-13T07:28:44.179Z,2.1
2018-11-13T07:31:44.095Z,2.2
2018-11-13T07:34:44.007Z,2.2
2018-11-13T07:37:44.254Z,2.1
2018-11-13T07:40:44.323Z,2.1
2018-11-13T07:43:44.340Z,2.1
2018-11-13T07:46:45.892Z,2.1
2018-11-13T07:49:44.005Z,2.2
2018-11-13T07:52:44.142Z,2.4
2018-11-13T07:55:44.120Z,2.3
2018-11-13T07:58:44.331Z,2.2
2018-11-13T08:01:44.164Z,2.2
2018-11-13T08:04:44.027Z,2.1
2018-11-13T08:07:43.969Z,2
2018-11-13T08:10:44.204Z,2
2018-11-13T08:13:43.954Z,2.2
2018-11-13T08:16:44.409Z,2.2
2018-11-13T08:19:44.169Z,2.1
2018-11-13T08:22:43.999Z,2.1
2018-11-13T08:25:45.703Z,2
2018-11-13T08:28:45.379Z,2
2018-11-13T08:31:43.897Z,2
2018-11-13T08:34:44.300Z,1.9
2018-11-13T08:37:44.088Z,2.1
2018-11-13T08:40:44.092Z,2
2018-11-13T08:43:45.335Z,2.4
2018-11-13T08:46:44.006Z,2.3
2018-11-13T08:49:43.946Z,2
2018-11-13T08:52:44.066Z,2.1
2018-11-13T08:55:44.044Z,2.2
2018-11-13T08:58:44.688Z,1.9
2018-11-13T09:01:44.272Z,1.8
2018-11-13T09:04:44.251Z,1.7
2018-11-13T09:07:43.859Z,1.6
2018-11-13T09:10:44.107Z,1.7
2018-11-13T09:13:44.077Z,1.8
2018-11-13T09:16:44.134Z,1.9
2018-11-13T09:19:46.585Z,1.8
2018-11-13T09:22:44.856Z,2.1
2018-11-13T09:25:43.849Z,1.9
2018-11-13T09:28:44.157Z,1.8
2018-11-13T09:31:45.626Z,1.7
2018-11-13T09:34:44.055Z,1.8
2018-11-13T09:37:44.132Z,4.1
2018-11-13T09:40:44.169Z,3.6
2018-11-13T09:43:43.864Z,2.8
2018-11-13T09:46:44.238Z,2.2
2018-11-13T09:49:44.266Z,2
2018-11-13T09:52:43.938Z,1.8
2018-11-13T09:55:44.787Z,2
2018-11-13T09:58:45.502Z,1.8
2018-11-13T10:01:51.288Z,1.7
2018-11-13T10:04:56.167Z,1.9
2018-11-13T10:07:44.116Z,2.1
2018-11-13T10:10:45.921Z,1.8
2018-11-13T10:13:43.930Z,1.7
2018-11-13T10:16:44.183Z,2.7
2018-11-13T10:19:44.196Z,2.3
2018-11-13T10:22:43.912Z,1.9
2018-11-13T10:25:44.224Z,2.1
2018-11-13T10:28:43.825Z,1.8
2018-11-13T10:31:44.183Z,2
2018-11-13T10:34:44.098Z,2
2018-11-13T10:37:43.953Z,1.9
2018-11-13T10:40:47.032Z,1.7
2018-11-13T10:43:45.492Z,1.6
2018-11-13T10:46:43.802Z,2.1
2018-11-13T10:49:44.150Z,1.8
2018-11-13T10:52:44.147Z,1.6
2018-11-13T10:55:44.131Z,1.6
2018-11-13T10:58:44.176Z,1.5
2018-11-13T11:01:44.110Z,1.5
2018-11-13T11:04:44.005Z,1.5
2018-11-13T11:07:43.849Z,1.5
2018-11-13T11:10:44.010Z,1.8
2018-11-13T11:13:46.562Z,1.7
2018-11-13T11:16:43.837Z,1.6
2018-11-13T11:19:43.861Z,1.9
2018-11-13T11:22:45.317Z,1.7
2018-11-13T11:25:44.007Z,1.6
2018-11-13T11:28:43.986Z,1.5
2018-11-13T11:31:44.100Z,1.5
2018-11-13T11:34:44.062Z,1.7
2018-11-13T11:37:43.906Z,1.6
2018-11-13T11:40:43.805Z,1.6
2018-11-13T11:43:44.067Z,1.5
2018-11-13T11:46:44.206Z,1.5
2018-11-13T11:49:43.889Z,1.5
2018-11-13T11:52:44.079Z,1.4
2018-11-13T11:55:43.908Z,1.4
2018-11-13T11:58:44.068Z,1.4
2018-11-13T12:01:44.148Z,1.4
2018-11-13T12:04:44.165Z,1.4
2018-11-13T12:07:43.814Z,1.4
2018-11-13T12:10:43.748Z,1.4
2018-11-13T12:13:43.935Z,1.4
2018-11-13T12:16:43.816Z,1.3
2018-11-13T12:19:44.154Z,1.5
2018-11-13T12:22:43.971Z,1.5
2018-11-13T12:25:45.897Z,1.5
2018-11-13T12:28:43.843Z,1.4
2018-11-13T12:31:44.218Z,1.4
2018-11-13T12:34:46.554Z,1.4
2018-11-13T12:37:43.921Z,1.4
2018-11-13T12:40:45.568Z,1.4
2018-11-13T12:43:44.389Z,1.3
2018-11-13T12:46:43.896Z,1.3
2018-11-13T12:49:43.836Z,1.4
2018-11-13T12:52:44.300Z,1.4
2018-11-13T12:55:46.267Z,1.3
2018-11-13T12:58:43.914Z,1.4
2018-11-13T13:01:43.788Z,1.3
2018-11-13T13:04:44.288Z,1.3
2018-11-13T13:07:45.554Z,1.4
2018-11-13T13:10:43.876Z,1.3
2018-11-13T13:13:43.994Z,1.4
2018-11-13T13:16:43.917Z,1.3
2018-11-13T13:19:44.076Z,1.3
2018-11-13T13:22:44.008Z,1.3
2018-11-13T13:25:45.423Z,1.4
2018-11-13T13:28:43.964Z,1.3
2018-11-13T13:31:45.570Z,1.3
2018-11-13T13:34:44.288Z,1.3
2018-11-13T13:37:43.785Z,1.4
2018-11-13T13:40:44.539Z,3.3
2018-11-13T13:43:43.880Z,3.1
2018-11-13T13:46:46.093Z,2.4
2018-11-13T13:49:44.271Z,1.9
2018-11-13T13:52:44.102Z,1.6
2018-11-13T13:55:44.518Z,1.4
2018-11-13T13:58:44.271Z,1.5
2018-11-13T14:01:44.398Z,1.4
2018-11-13T14:04:43.865Z,1.4
2018-11-13T14:07:44.140Z,2.4
2018-11-13T14:10:44.156Z,1.9
2018-11-13T14:13:43.872Z,1.6
2018-11-13T14:16:44.094Z,1.4
2018-11-13T14:19:44.491Z,1.8
2018-11-13T14:22:43.791Z,1.6
2018-11-13T14:25:44.136Z,1.8
2018-11-13T14:28:43.861Z,1.5
2018-11-13T14:31:43.807Z,1.3
2018-11-13T14:34:44.146Z,1.3
2018-11-13T14:37:43.917Z,1.3
2018-11-13T14:40:43.896Z,1.3
2018-11-13T14:43:43.738Z,1.3
2018-11-13T14:46:43.835Z,1.3
2018-11-13T14:49:43.808Z,1.3
2018-11-13T14:52:43.801Z,1.4
2018-11-13T14:55:44.259Z,1.4
2018-11-13T14:58:43.849Z,1.3
2018-11-13T15:01:45.590Z,1.3
2018-11-13T15:04:43.921Z,1.3
2018-11-13T15:07:44.913Z,1.2
2018-11-13T15:10:44.414Z,1.1
2018-11-13T15:13:44.222Z,1.2
2018-11-13T15:16:43.755Z,1.2
2018-11-13T15:19:43.950Z,1.3
2018-11-13T15:22:44.676Z,1.3
2018-11-13T15:25:44.032Z,1.3
2018-11-13T15:28:44.137Z,1.2
2018-11-13T15:31:43.812Z,1.2
2018-11-13T15:34:44.354Z,1.3
2018-11-13T15:37:44.039Z,1.2
2018-11-13T15:40:44.210Z,1.3
2018-11-13T15:43:43.806Z,1.2
2018-11-13T15:46:43.868Z,1.3
2018-11-13T15:49:44.000Z,1.2
2018-11-13T15:52:43.948Z,1.2
2018-11-13T15:55:44.690Z,1.2
2018-11-13T15:58:43.862Z,1.2
2018-11-13T16:01:44.101Z,1.2
2018-11-13T16:04:45.498Z,1.2
2018-11-13T16:07:43.873Z,1.2
2018-11-13T16:10:43.815Z,1.3
2018-11-13T16:13:43.759Z,1.3
2018-11-13T16:16:43.944Z,1.3
2018-11-13T16:19:43.716Z,1.3
2018-11-13T16:22:43.966Z,1.5
2018-11-13T16:25:43.800Z,1.5
2018-11-13T16:28:44.638Z,1.4
2018-11-13T16:31:44.025Z,1.3
2018-11-13T16:34:43.910Z,1.2
2018-11-13T16:37:44.405Z,1.2
2018-11-13T16:40:43.741Z,1.2
2018-11-13T16:43:43.846Z,1.3
2018-11-13T16:46:43.899Z,1.3
2018-11-13T16:49:43.785Z,1.2
2018-11-13T16:52:43.993Z,1.3
2018-11-13T16:55:43.892Z,1.3
2018-11-13T16:58:43.971Z,1.2
2018-11-13T17:01:43.781Z,1.3
2018-11-13T17:04:44.082Z,1.3
2018-11-13T17:07:44.206Z,1.4
2018-11-13T17:10:44.435Z,1.3
2018-11-13T17:13:43.959Z,1.3
2018-11-13T17:16:43.925Z,1.3
2018-11-13T17:19:45.946Z,1.3
2018-11-13T17:22:43.762Z,1.3
2018-11-13T17:25:44.007Z,1.3
2018-11-13T17:28:44.048Z,3.6
2018-11-13T17:31:45.503Z,2.9
2018-11-13T17:34:44.110Z,2.7
2018-11-13T17:37:44.683Z,2
2018-11-13T17:40:43.873Z,4.3
2018-11-13T17:43:43.789Z,3
2018-11-13T17:46:43.936Z,2.7
2018-11-13T17:49:43.892Z,2.2
2018-11-13T17:52:43.821Z,2.1
2018-11-13T17:55:44.111Z,1.8
2018-11-13T17:58:43.962Z,2.5
2018-11-13T18:01:44.061Z,2.2
2018-11-13T18:04:43.911Z,2.7
2018-11-13T18:07:45.308Z,3
2018-11-13T18:10:44.153Z,3.3
2018-11-13T18:13:43.853Z,3.9
2018-11-13T18:16:44.331Z,4.5
2018-11-13T18:19:43.816Z,3.7
2018-11-13T18:22:43.772Z,3.3
2018-11-13T18:25:43.941Z,2.9
2018-11-13T18:28:46.168Z,3.3
2018-11-13T18:31:44.178Z,4.1
2018-11-13T18:34:43.901Z,3.6
2018-11-13T18:37:44.572Z,3.3
2018-11-13T18:40:43.772Z,3.3
2018-11-13T18:43:43.888Z,2.7
2018-11-13T18:46:44.194Z,2.5
2018-11-13T18:49:43.981Z,2.3
2018-11-13T18:52:44.243Z,2.8
2018-11-13T18:55:44.124Z,5.7
2018-11-13T18:58:44.503Z,5.1
2018-11-13T19:01:43.740Z,5.4
2018-11-13T19:04:43.993Z,6.4
2018-11-13T19:07:45.351Z,9.2
2018-11-13T19:10:45.733Z,12.6
2018-11-13T19:13:43.781Z,11.7
2018-11-13T19:16:44.442Z,12.5
2018-11-13T19:19:45.696Z,12.1
2018-11-13T19:22:43.779Z,14.2
2018-11-13T19:25:43.951Z,15.8
2018-11-13T19:28:43.833Z,14
2018-11-13T19:31:43.796Z,13.8
2018-11-13T19:34:44.245Z,12
2018-11-13T19:37:44.037Z,12.1
2018-11-13T19:40:43.909Z,11.6
2018-11-13T19:43:44.008Z,10.5
2018-11-13T19:46:45.171Z,9.6
2018-11-13T19:49:45.476Z,11.5
2018-11-13T19:52:44.979Z,10.2
2018-11-13T19:55:44.144Z,9.2
2018-11-13T19:58:43.858Z,8.5
2018-11-13T20:01:43.696Z,8.7
2018-11-13T20:04:45.887Z,8.4
2018-11-13T20:07:44.017Z,11.2
2018-11-13T20:10:44.274Z,12.2
2018-11-13T20:13:44.068Z,11
2018-11-13T20:16:43.604Z,11.6
2018-11-13T20:19:43.871Z,10.3
2018-11-13T20:22:43.811Z,11.8
2018-11-13T20:25:43.970Z,10.9
2018-11-13T20:28:44.186Z,11.2
2018-11-13T20:31:43.955Z,10.3
2018-11-13T20:34:43.802Z,11.1
2018-11-13T20:37:46.032Z,11.1
2018-11-13T20:40:44.171Z,11.5
2018-11-13T20:43:45.797Z,10.9
2018-11-13T20:46:43.816Z,11.2
2018-11-13T20:49:43.742Z,11.5
2018-11-13T20:52:43.882Z,11.1
2018-11-13T20:55:43.588Z,10.8
2018-11-13T20:58:43.802Z,12.6
2018-11-13T21:01:44.851Z,11.6
2018-11-13T21:04:43.652Z,12.8
2018-11-13T21:07:45.410Z,12.7
2018-11-13T21:10:46.211Z,13.9
2018-11-13T21:13:43.842Z,12.6
2018-11-13T21:16:46.132Z,12.7
2018-11-13T21:19:43.619Z,12.8
2018-11-13T21:22:43.916Z,13.3
2018-11-13T21:25:43.851Z,11.2
2018-11-13T21:28:43.948Z,10.6
2018-11-13T21:31:43.748Z,11.5
2018-11-13T21:34:44.081Z,11.2
2018-11-13T21:37:46.232Z,10.4
2018-11-13T21:40:43.945Z,9.6
2018-11-13T21:43:44.398Z,9.9
2018-11-13T21:46:44.427Z,10.2
2018-11-13T21:49:45.068Z,9.7
2018-11-13T21:52:43.837Z,9.9
2018-11-13T21:55:46.170Z,9.7
2018-11-13T21:58:44.008Z,9.6
2018-11-13T22:01:44.127Z,9.2
2018-11-13T22:04:45.909Z,9.2
2018-11-13T22:07:43.869Z,9.4
2018-11-13T22:10:44.022Z,9
2018-11-13T22:13:44.107Z,8.9
2018-11-13T22:16:47.218Z,9
2018-11-13T22:19:46.155Z,8.7
2018-11-13T22:22:43.652Z,8.1
2018-11-13T22:25:43.868Z,7.9
2018-11-13T22:28:46.920Z,8.2
2018-11-13T22:31:43.832Z,8.4
2018-11-13T22:34:43.824Z,8.2
2018-11-13T22:37:43.919Z,7.7
2018-11-13T22:40:44.882Z,7.4
2018-11-13T22:43:43.822Z,7.4
2018-11-13T22:46:43.864Z,7.3
2018-11-13T22:49:43.920Z,7.3
2018-11-13T22:52:43.995Z,6.9
2018-11-13T22:55:43.903Z,7
2018-11-13T22:58:44.246Z,6.9
2018-11-13T23:01:43.968Z,7
2018-11-13T23:04:43.539Z,7
2018-11-13T23:07:43.615Z,6.8
2018-11-13T23:10:43.800Z,6.9
2018-11-13T23:13:43.828Z,7.1
2018-11-13T23:16:43.969Z,6.7
2018-11-13T23:19:43.822Z,6.6
2018-11-13T23:22:43.635Z,6.5
2018-11-13T23:25:44.015Z,6.6
2018-11-13T23:28:44.130Z,6.6
2018-11-13T23:31:45.126Z,6.5
2018-11-13T23:34:43.757Z,7
2018-11-13T23:37:44.978Z,6.8
2018-11-13T23:40:44.528Z,6.8
2018-11-13T23:43:44.114Z,6.8
2018-11-13T23:46:43.766Z,6.9
2018-11-13T23:49:43.701Z,7
2018-11-13T23:52:43.789Z,6.9
2018-11-13T23:55:46.413Z,6.6
2018-11-13T23:58:43.554Z,6.3
